Time;durP1;ratioP1;P1;durP2;ratioP2;P2;SDS_P1;SDS_P2;PMS_P1;PMS_P2;Temp;Humidity;BMP_temperature;BMP_pressure;BME280_temperature;BME280_humidity;BME280_pressure;Samples;Min_cycle;Max_cycle;Signal;HPM_P1;HPM_P2
2021/10/28 00:12:42;;;;;;;8.35;6.78;;;;;;;;;;5032737;28;20032;-42
2021/10/28 00:15:14;;;;;;;7.63;5.88;;;;;;;;;;5035350;28;20018;-44
2021/10/28 00:17:58;;;;;;;13.85;5.13;;;;;;;;;;5037480;28;20127;-45
2021/10/28 00:20:23;;;;;;;6.18;5.57;;;;;;;;;;5034260;28;20049;-42
2021/10/28 00:22:48;;;;;;;10.10;5.43;;;;;;;;;;5032898;28;20060;-42
2021/10/28 00:25:14;;;;;;;6.63;5.15;;;;;;;;;;5034728;28;20428;-41
2021/10/28 00:27:39;;;;;;;8.52;4.85;;;;;;;;;;5038654;28;20608;-44
2021/10/28 00:30:05;;;;;;;9.07;4.70;;;;;;;;;;5037288;28;20425;-46
2021/10/28 00:32:30;;;;;;;4.50;4.07;;;;;;;;;;5037781;28;20480;-42
2021/10/28 00:34:56;;;;;;;6.38;4.30;;;;;;;;;;5036431;28;20037;-47
2021/10/28 00:37:21;;;;;;;5.00;4.22;;;;;;;;;;5036583;28;20412;-47
2021/10/28 00:39:46;;;;;;;4.13;3.70;;;;;;;;;;5033384;28;20060;-45
2021/10/28 00:42:13;;;;;;;8.15;3.83;;;;;;;;;;5035963;28;20028;-41
2021/10/28 00:44:38;;;;;;;7.65;4.60;;;;;;;;;;5034345;28;20237;-46
2021/10/28 00:47:06;;;;;;;6.70;4.60;;;;;;;;;;5036787;28;20561;-42
2021/10/28 00:49:31;;;;;;;5.82;4.57;;;;;;;;;;5034604;28;20080;-42
2021/10/28 00:51:56;;;;;;;10.77;4.32;;;;;;;;;;5035495;28;20049;-42
2021/10/28 00:54:22;;;;;;;6.00;4.43;;;;;;;;;;5031391;28;20009;-41
2021/10/28 00:56:48;;;;;;;10.30;3.80;;;;;;;;;;5038150;28;20100;-44
2021/10/28 00:59:13;;;;;;;8.23;4.35;;;;;;;;;;5035131;28;20377;-41
2021/10/28 01:01:39;;;;;;;6.63;3.80;;;;;;;;;;5035614;28;20052;-43
2021/10/28 01:04:05;;;;;;;6.03;4.75;;;;;;;;;;5040615;28;20029;-45
2021/10/28 01:06:30;;;;;;;13.43;4.97;;;;;;;;;;5035510;28;20547;-44
2021/10/28 01:08:55;;;;;;;6.57;4.13;;;;;;;;;;5040927;28;20152;-45
2021/10/28 01:11:21;;;;;;;8.00;4.35;;;;;;;;;;5039180;28;20392;-45
2021/10/28 01:13:46;;;;;;;6.85;4.07;;;;;;;;;;5039295;28;20021;-43
2021/10/28 01:16:12;;;;;;;3.78;3.42;;;;;;;;;;5037130;28;20035;-40
2021/10/28 01:18:38;;;;;;;4.95;4.03;;;;;;;;;;5040157;28;20079;-43
2021/10/28 01:21:06;;;;;;;11.18;4.00;;;;;;;;;;5035457;28;20037;-45
2021/10/28 01:23:32;;;;;;;7.57;4.22;;;;;;;;;;5035124;28;20652;-44
2021/10/28 01:25:58;;;;;;;10.88;4.93;;;;;;;;;;5039280;28;20506;-44
2021/10/28 01:28:28;;;;;;;5.93;4.97;;;;;;;;;;5035508;28;20017;-40
2021/10/28 01:31:01;;;;;;;10.55;3.85;;;;;;;;;;5035657;28;20029;-48
2021/10/28 01:33:27;;;;;;;4.35;3.15;;;;;;;;;;5039582;28;20087;-42
2021/10/28 01:35:53;;;;;;;5.53;4.60;;;;;;;;;;5035388;28;20021;-44
2021/10/28 01:38:22;;;;;;;4.93;4.35;;;;;;;;;;5036566;28;20407;-43
2021/10/28 01:41:03;;;;;;;11.02;5.35;;;;;;;;;;5035942;28;20025;-41
2021/10/28 01:43:32;;;;;;;8.48;3.80;;;;;;;;;;5039234;28;20025;-45
2021/10/28 01:46:05;;;;;;;5.90;3.83;;;;;;;;;;5039718;28;20509;-48
2021/10/28 01:48:34;;;;;;;5.03;4.20;;;;;;;;;;5038533;28;20032;-44
2021/10/28 01:50:59;;;;;;;4.05;3.60;;;;;;;;;;5037130;28;20025;-44
2021/10/28 01:53:24;;;;;;;8.02;5.60;;;;;;;;;;5034245;28;20026;-45
2021/10/28 01:55:50;;;;;;;9.40;3.88;;;;;;;;;;5037253;28;20025;-43
2021/10/28 01:58:18;;;;;;;7.50;3.63;;;;;;;;;;5034583;28;20029;-46
2021/10/28 02:00:44;;;;;;;5.72;3.97;;;;;;;;;;5038038;28;20037;-41
2021/10/28 02:03:09;;;;;;;5.60;4.18;;;;;;;;;;5039637;28;20449;-41
2021/10/28 02:05:35;;;;;;;9.68;5.50;;;;;;;;;;5037420;28;20409;-46
2021/10/28 02:08:01;;;;;;;5.18;4.07;;;;;;;;;;5035835;28;20444;-42
2021/10/28 02:10:26;;;;;;;4.80;3.88;;;;;;;;;;5039325;28;20476;-45
2021/10/28 02:12:55;;;;;;;4.72;3.75;;;;;;;;;;5037862;28;20036;-44
2021/10/28 02:15:21;;;;;;;13.02;5.60;;;;;;;;;;5033542;28;20049;-44
2021/10/28 02:17:46;;;;;;;8.05;4.25;;;;;;;;;;5034274;28;20050;-41
2021/10/28 02:20:12;;;;;;;5.30;4.28;;;;;;;;;;5038368;28;20668;-41
2021/10/28 02:22:39;;;;;;;7.93;4.32;;;;;;;;;;5036433;28;20029;-45
2021/10/28 02:25:05;;;;;;;5.07;4.57;;;;;;;;;;5034315;28;20029;-44
2021/10/28 02:27:30;;;;;;;4.97;3.63;;;;;;;;;;5035849;28;20099;-43
2021/10/28 02:29:56;;;;;;;6.65;5.25;;;;;;;;;;5039469;28;20153;-42
2021/10/28 02:32:21;;;;;;;9.80;5.20;;;;;;;;;;5036751;28;20025;-42
2021/10/28 02:34:46;;;;;;;7.65;5.85;;;;;;;;;;5034447;28;20032;-43
2021/10/28 02:37:12;;;;;;;16.65;6.00;;;;;;;;;;5040766;28;20013;-42
2021/10/28 02:39:37;;;;;;;6.28;4.63;;;;;;;;;;5036114;28;20021;-42
2021/10/28 02:42:03;;;;;;;10.73;4.53;;;;;;;;;;5036800;28;20400;-44
2021/10/28 02:44:29;;;;;;;5.72;4.57;;;;;;;;;;5035098;28;20036;-45
2021/10/28 02:46:54;;;;;;;11.55;5.90;;;;;;;;;;5039846;28;20457;-42
2021/10/28 02:49:20;;;;;;;6.47;5.28;;;;;;;;;;5035632;28;20033;-43
2021/10/28 02:51:49;;;;;;;13.13;6.40;;;;;;;;;;5035228;28;20030;-42
2021/10/28 02:54:15;;;;;;;8.38;4.05;;;;;;;;;;5038296;28;20067;-43
2021/10/28 02:56:40;;;;;;;3.63;3.25;;;;;;;;;;5038672;28;20057;-47
2021/10/28 02:59:06;;;;;;;4.28;3.80;;;;;;;;;;5035540;28;20024;-41
2021/10/28 03:01:31;;;;;;;4.65;4.05;;;;;;;;;;5036253;28;20033;-43
2021/10/28 03:03:56;;;;;;;7.13;4.03;;;;;;;;;;5035802;28;20047;-42
2021/10/28 03:06:21;;;;;;;7.82;4.28;;;;;;;;;;5038852;28;20025;-43
2021/10/28 03:08:49;;;;;;;5.80;4.75;;;;;;;;;;5035003;28;20025;-44
2021/10/28 03:11:14;;;;;;;7.07;5.18;;;;;;;;;;5035345;28;20728;-43
2021/10/28 03:13:40;;;;;;;9.43;4.57;;;;;;;;;;5033527;28;20024;-42
2021/10/28 03:16:52;;;;;;;6.25;4.32;;;;;;;;;;5031564;28;20032;-42
2021/10/28 03:27:05;;;;;;;7.40;5.43;;;;;;;;;;5036379;28;20091;-46
2021/10/28 03:29:30;;;;;;;7.03;6.32;;;;;;;;;;5034393;28;20034;-43
2021/10/28 03:31:56;;;;;;;8.57;5.25;;;;;;;;;;5034869;28;20037;-43
2021/10/28 03:34:21;;;;;;;10.45;5.70;;;;;;;;;;5034285;28;20544;-42
2021/10/28 03:37:31;;;;;;;5.05;3.88;;;;;;;;;;5031620;28;20060;-41
2021/10/28 04:08:38;;;;;;;;;;;;;;;;;;5038236;28;20025;-44
2021/10/28 04:30:03;;;;;;;11.57;5.95;;;;;;;;;;5036965;28;20128;-45
2021/10/28 04:32:29;;;;;;;5.35;4.85;;;;;;;;;;5040293;28;20548;-43
2021/10/28 04:34:54;;;;;;;15.93;5.32;;;;;;;;;;5042003;28;20036;-44
2021/10/28 04:37:20;;;;;;;8.88;4.57;;;;;;;;;;5039007;28;20019;-45
2021/10/28 04:39:46;;;;;;;9.57;5.97;;;;;;;;;;5041132;28;20052;-44
2021/10/28 04:42:12;;;;;;;7.88;5.57;;;;;;;;;;5038327;28;20056;-42
2021/10/28 04:44:38;;;;;;;10.30;5.55;;;;;;;;;;5037606;28;20644;-45
2021/10/28 04:47:04;;;;;;;5.25;4.75;;;;;;;;;;5041833;28;20061;-45
2021/10/28 04:49:29;;;;;;;5.72;5.22;;;;;;;;;;5035236;28;20051;-46
2021/10/28 04:51:54;;;;;;;7.10;4.88;;;;;;;;;;5038702;28;20078;-40
2021/10/28 04:54:20;;;;;;;8.18;4.00;;;;;;;;;;5034689;28;20553;-44
2021/10/28 04:56:45;;;;;;;7.93;5.50;;;;;;;;;;5038364;28;20035;-40
2021/10/28 04:59:11;;;;;;;7.53;4.22;;;;;;;;;;5040111;28;20469;-39
2021/10/28 05:01:37;;;;;;;5.13;4.30;;;;;;;;;;5038832;28;20498;-42
2021/10/28 05:04:02;;;;;;;15.52;5.53;;;;;;;;;;5035722;28;20020;-42
2021/10/28 05:06:28;;;;;;;8.27;6.72;;;;;;;;;;5036136;28;20021;-40
2021/10/28 05:08:53;;;;;;;6.57;4.13;;;;;;;;;;5039016;28;20028;-39
2021/10/28 05:11:19;;;;;;;12.13;4.53;;;;;;;;;;5037465;28;20029;-40
2021/10/28 05:13:44;;;;;;;7.82;5.07;;;;;;;;;;5040665;28;20016;-41
2021/10/28 05:16:09;;;;;;;9.63;7.85;;;;;;;;;;5035142;28;20303;-40
2021/10/28 05:18:45;;;;;;;9.48;6.20;;;;;;;;;;5034817;28;20021;-39
2021/10/28 05:21:11;;;;;;;12.68;5.35;;;;;;;;;;5036904;28;20025;-40
2021/10/28 05:23:37;;;;;;;12.35;7.40;;;;;;;;;;5035061;28;20060;-39
2021/10/28 05:26:02;;;;;;;7.47;6.72;;;;;;;;;;5039087;28;20018;-40
2021/10/28 05:28:28;;;;;;;11.02;8.02;;;;;;;;;;5033925;28;20036;-41
2021/10/28 05:30:53;;;;;;;10.40;7.55;;;;;;;;;;5039231;28;20020;-42
2021/10/28 05:33:19;;;;;;;10.15;7.35;;;;;;;;;;5036544;28;20029;-40
2021/10/28 05:35:44;;;;;;;10.00;6.28;;;;;;;;;;5040678;28;20040;-45
2021/10/28 05:38:10;;;;;;;7.47;6.78;;;;;;;;;;5036131;28;20824;-43
2021/10/28 05:40:35;;;;;;;8.38;5.38;;;;;;;;;;5036503;28;20567;-42
2021/10/28 05:43:01;;;;;;;14.77;6.15;;;;;;;;;;5033546;28;20048;-45
2021/10/28 05:45:28;;;;;;;9.50;7.43;;;;;;;;;;5036828;28;20036;-42
2021/10/28 05:47:53;;;;;;;9.68;6.50;;;;;;;;;;5038775;28;20029;-41
2021/10/28 05:50:21;;;;;;;6.50;5.25;;;;;;;;;;5032394;28;20029;-41
2021/10/28 05:52:48;;;;;;;9.32;5.32;;;;;;;;;;5039164;28;20139;-43
2021/10/28 05:55:14;;;;;;;15.40;9.00;;;;;;;;;;5036082;28;20021;-41
2021/10/28 05:57:39;;;;;;;51.22;35.03;;;;;;;;;;5032366;28;20018;-40
2021/10/28 06:00:07;;;;;;;78.75;55.95;;;;;;;;;;5032616;28;20422;-40
2021/10/28 06:02:33;;;;;;;86.18;61.67;;;;;;;;;;5038564;28;20238;-41
2021/10/28 06:04:58;;;;;;;102.57;73.07;;;;;;;;;;5039044;28;20517;-42
2021/10/28 06:07:23;;;;;;;98.57;63.00;;;;;;;;;;5034448;28;20030;-41
2021/10/28 06:09:49;;;;;;;75.63;54.33;;;;;;;;;;5035351;28;20120;-39
2021/10/28 06:12:15;;;;;;;51.17;33.10;;;;;;;;;;5034677;28;20044;-41
2021/10/28 06:14:40;;;;;;;44.05;24.40;;;;;;;;;;5035868;28;20068;-39
2021/10/28 06:17:11;;;;;;;27.55;13.30;;;;;;;;;;5036935;28;20469;-42
2021/10/28 06:19:37;;;;;;;28.75;11.55;;;;;;;;;;5036550;28;20597;-39
2021/10/28 06:22:02;;;;;;;15.65;10.15;;;;;;;;;;5036933;28;20123;-40
2021/10/28 06:24:28;;;;;;;9.85;8.85;;;;;;;;;;5032935;28;20053;-40
2021/10/28 06:26:53;;;;;;;13.32;8.68;;;;;;;;;;5038877;28;20021;-40
2021/10/28 06:29:19;;;;;;;14.82;8.32;;;;;;;;;;5037411;28;20025;-42
2021/10/28 06:31:46;;;;;;;9.52;6.80;;;;;;;;;;5037577;28;20467;-44
2021/10/28 06:34:18;;;;;;;17.00;7.10;;;;;;;;;;5039947;28;20522;-40
2021/10/28 06:36:44;;;;;;;32.65;27.40;;;;;;;;;;5039242;28;20029;-39
2021/10/28 06:39:09;;;;;;;12.55;9.93;;;;;;;;;;5038266;28;20071;-40
2021/10/28 06:41:34;;;;;;;9.75;6.72;;;;;;;;;;5037534;28;20025;-39
2021/10/28 06:44:00;;;;;;;15.63;10.63;;;;;;;;;;5034007;28;20626;-41
2021/10/28 06:46:29;;;;;;;9.90;7.25;;;;;;;;;;5035699;28;20505;-41
2021/10/28 06:48:55;;;;;;;10.80;7.07;;;;;;;;;;5037064;28;20099;-46
2021/10/28 06:51:21;;;;;;;12.77;6.90;;;;;;;;;;5040891;28;20478;-42
2021/10/28 07:04:43;;;;;;;8.70;6.00;;;;;;;;;;5033778;28;20442;-45
2021/10/28 07:07:09;;;;;;;17.25;10.85;;;;;;;;;;5034965;28;20104;-44
2021/10/28 07:09:37;;;;;;;11.77;9.73;;;;;;;;;;5033917;28;20116;-38
2021/10/28 07:14:33;;;;;;;;;;;;;;;;;;5036176;28;20078;-47
2021/10/28 07:35:50;;;;;;;51.67;34.58;;;;;;;;;;5036549;28;20086;-46
2021/10/28 08:13:52;;;;;;;36.10;25.55;;;;;;;;;;5036384;28;20087;-43
2021/10/28 08:29:39;;;;;;;15.52;12.85;;;;;;;;;;5030130;28;20036;-45
2021/10/28 08:32:06;;;;;;;15.27;13.13;;;;;;;;;;5035511;28;20055;-43
2021/10/28 08:34:33;;;;;;;14.70;10.63;;;;;;;;;;5034910;28;20074;-46
2021/10/28 08:37:23;;;;;;;14.43;8.98;;;;;;;;;;5031460;28;20048;-44
2021/10/28 08:39:50;;;;;;;12.25;7.55;;;;;;;;;;5033758;28;20033;-44
2021/10/28 08:42:16;;;;;;;238.52;58.40;;;;;;;;;;5035017;28;20048;-42
2021/10/28 08:44:45;;;;;;;17.92;13.80;;;;;;;;;;5036100;28;20029;-45
2021/10/28 08:47:11;;;;;;;10.35;9.27;;;;;;;;;;5035884;28;20057;-46
2021/10/28 08:49:42;;;;;;;8.82;7.93;;;;;;;;;;5034994;28;20041;-44
2021/10/28 09:00:21;;;;;;;10.18;8.40;;;;;;;;;;5032562;28;20475;-45
2021/10/28 09:19:41;;;;;;;77.30;51.97;;;;;;;;;;5039827;28;20480;-45
2021/10/28 09:24:59;;;;;;;46.88;32.97;;;;;;;;;;5035409;28;20028;-48
2021/10/28 09:27:33;;;;;;;45.28;32.25;;;;;;;;;;5046079;28;20025;-42
2021/10/28 09:32:34;;;;;;;46.03;30.70;;;;;;;;;;5035596;28;20021;-44
2021/10/28 09:46:12;;;;;;;53.88;35.97;;;;;;;;;;5037241;28;20582;-42
2021/10/28 09:51:06;;;;;;;45.53;38.13;;;;;;;;;;5039148;28;20100;-45
2021/10/28 09:53:56;;;;;;;47.67;40.10;;;;;;;;;;5037685;28;20025;-45
2021/10/28 09:59:26;;;;;;;41.70;34.30;;;;;;;;;;5041101;28;20075;-47
2021/10/28 10:01:58;;;;;;;53.85;34.97;;;;;;;;;;5039545;28;20108;-42
2021/10/28 10:04:24;;;;;;;;;;;;;;;;;;5038591;28;20032;-46
2021/10/28 10:06:50;;;;;;;39.47;29.20;;;;;;;;;;5040241;28;19909;-48
2021/10/28 10:09:15;;;;;;;51.78;32.90;;;;;;;;;;5038260;28;20087;-44
2021/10/28 10:11:41;;;;;;;51.40;36.13;;;;;;;;;;5036714;28;20144;-42
2021/10/28 10:14:07;;;;;;;34.80;29.05;;;;;;;;;;5041428;28;20520;-45
2021/10/28 10:16:33;;;;;;;37.40;25.63;;;;;;;;;;5037368;28;20017;-43
2021/10/28 10:18:59;;;;;;;19.50;17.13;;;;;;;;;;5037452;28;20625;-47
2021/10/28 10:24:15;;;;;;;16.13;7.97;;;;;;;;;;5037548;28;20021;-47
2021/10/28 12:44:40;;;;;;;10.57;9.20;;;;;;;;;;5037819;28;20138;-42
2021/10/28 12:52:56;;;;;;;28.83;18.52;;;;;;;;;;5039512;28;20112;-46
2021/10/28 13:51:51;;;;;;;12.27;9.02;;;;;;;;;;5043647;28;20127;-48
2021/10/28 15:28:12;;;;;;;5.65;4.78;;;;;;;;;;5034883;28;20035;-45
2021/10/28 15:31:02;;;;;;;12.02;8.35;;;;;;;;;;5035050;28;20502;-42
2021/10/28 15:36:25;;;;;;;11.15;7.22;;;;;;;;;;5038586;28;20738;-47
2021/10/28 15:39:19;;;;;;;14.60;9.02;;;;;;;;;;5033415;28;20032;-51
2021/10/28 15:48:12;;;;;;;13.68;6.72;;;;;;;;;;5038108;28;20128;-52
2021/10/28 15:53:02;;;;;;;8.40;6.38;;;;;;;;;;5037435;28;20470;-52
2021/10/28 16:01:13;;;;;;;7.80;4.95;;;;;;;;;;5036062;28;20099;-51
2021/10/28 16:22:47;;;;;;;11.95;5.15;;;;;;;;;;5035485;28;20071;-51
2021/10/28 16:25:12;;;;;;;7.85;5.40;;;;;;;;;;5031242;28;20022;-47
2021/10/28 16:27:38;;;;;;;5.97;3.95;;;;;;;;;;5039142;28;20022;-46
2021/10/28 16:30:04;;;;;;;20.10;5.97;;;;;;;;;;5041498;28;20095;-47
2021/10/28 16:32:31;;;;;;;6.97;5.10;;;;;;;;;;5040568;28;20025;-48
2021/10/28 16:34:56;;;;;;;15.73;4.00;;;;;;;;;;5038528;28;20703;-47
2021/10/28 16:37:24;;;;;;;14.07;6.00;;;;;;;;;;5037440;28;20021;-49
2021/10/28 16:39:50;;;;;;;7.13;4.72;;;;;;;;;;5038845;28;20017;-51
2021/10/28 16:42:16;;;;;;;5.50;3.30;;;;;;;;;;5038503;28;20029;-47
2021/10/28 16:44:42;;;;;;;5.18;3.90;;;;;;;;;;5039140;28;20017;-45
2021/10/28 16:47:07;;;;;;;12.60;3.72;;;;;;;;;;5038795;28;20083;-52
2021/10/28 16:49:32;;;;;;;11.65;3.78;;;;;;;;;;5040393;28;20021;-50
2021/10/28 16:51:58;;;;;;;5.00;3.53;;;;;;;;;;5037513;28;20040;-51
2021/10/28 16:54:26;;;;;;;4.50;3.88;;;;;;;;;;5038088;28;20010;-52
2021/10/28 16:56:51;;;;;;;6.15;5.55;;;;;;;;;;5038426;28;20017;-48
2021/10/28 16:59:16;;;;;;;4.63;4.15;;;;;;;;;;5039247;28;20387;-47
2021/10/28 17:01:42;;;;;;;5.57;4.93;;;;;;;;;;5035974;28;20039;-49
2021/10/28 17:04:07;;;;;;;21.83;11.18;;;;;;;;;;5039357;28;20040;-44
2021/10/28 17:06:32;;;;;;;22.60;11.18;;;;;;;;;;5040045;28;20028;-46
2021/10/28 17:08:59;;;;;;;18.58;10.25;;;;;;;;;;5036091;28;20125;-44
2021/10/28 17:11:28;;;;;;;11.85;8.63;;;;;;;;;;5038471;28;20469;-45
2021/10/28 17:13:56;;;;;;;8.68;7.03;;;;;;;;;;5039616;28;20029;-44
2021/10/28 17:16:21;;;;;;;12.80;8.65;;;;;;;;;;5036473;28;20082;-43
2021/10/28 17:18:46;;;;;;;8.20;5.22;;;;;;;;;;5032719;28;20102;-45
2021/10/28 17:21:11;;;;;;;10.38;7.70;;;;;;;;;;5032500;28;20014;-43
2021/10/28 17:23:42;;;;;;;12.80;7.70;;;;;;;;;;5040326;28;20393;-45
2021/10/28 17:26:10;;;;;;;5.77;5.13;;;;;;;;;;5039023;28;20029;-50
2021/10/28 17:28:36;;;;;;;7.47;5.97;;;;;;;;;;5038930;28;20309;-46
2021/10/28 17:31:02;;;;;;;12.80;7.30;;;;;;;;;;5034295;28;20026;-46
2021/10/28 17:33:28;;;;;;;19.67;15.77;;;;;;;;;;5040643;28;20581;-45
2021/10/28 17:35:53;;;;;;;17.13;14.38;;;;;;;;;;5037205;28;20025;-48
2021/10/28 17:38:19;;;;;;;17.42;10.13;;;;;;;;;;5038092;28;20506;-45
2021/10/28 17:40:45;;;;;;;16.70;11.20;;;;;;;;;;5040628;28;20021;-43
2021/10/28 17:43:12;;;;;;;16.52;11.55;;;;;;;;;;5039477;28;20035;-44
2021/10/28 17:45:37;;;;;;;14.98;11.88;;;;;;;;;;5038704;28;20056;-46
2021/10/28 17:48:03;;;;;;;21.77;11.55;;;;;;;;;;5037970;28;20099;-41
2021/10/28 17:50:28;;;;;;;16.83;11.60;;;;;;;;;;5036318;28;20025;-43
2021/10/28 17:52:54;;;;;;;18.05;11.50;;;;;;;;;;5039868;28;20111;-48
2021/10/28 17:55:19;;;;;;;12.63;9.23;;;;;;;;;;5040374;28;20132;-45
2021/10/28 17:57:47;;;;;;;12.77;10.52;;;;;;;;;;5039078;28;20025;-50
2021/10/28 18:00:13;;;;;;;15.43;10.18;;;;;;;;;;5038068;28;20057;-49
2021/10/28 18:02:39;;;;;;;10.75;8.32;;;;;;;;;;5039634;28;20440;-45
2021/10/28 18:05:05;;;;;;;23.67;7.45;;;;;;;;;;5039048;28;20025;-46
2021/10/28 18:07:30;;;;;;;9.63;6.07;;;;;;;;;;5039632;28;20480;-47
2021/10/28 18:09:58;;;;;;;9.40;5.90;;;;;;;;;;5039898;28;20036;-43
2021/10/28 18:12:23;;;;;;;10.43;7.82;;;;;;;;;;5038225;28;20024;-44
2021/10/28 18:14:48;;;;;;;17.33;11.80;;;;;;;;;;5040072;28;20044;-42
2021/10/28 18:17:14;;;;;;;16.85;12.95;;;;;;;;;;5038255;28;20100;-42
2021/10/28 18:19:42;;;;;;;17.65;12.75;;;;;;;;;;5036277;28;20021;-43
2021/10/28 18:22:07;;;;;;;11.75;9.85;;;;;;;;;;5035462;28;20492;-43
2021/10/28 18:24:33;;;;;;;14.80;7.22;;;;;;;;;;5038018;28;20133;-43
2021/10/28 18:26:59;;;;;;;9.70;7.22;;;;;;;;;;5036401;28;20579;-43
2021/10/28 18:29:24;;;;;;;9.10;6.72;;;;;;;;;;5036232;28;20028;-43
2021/10/28 18:31:50;;;;;;;12.27;7.38;;;;;;;;;;5039156;28;20029;-45
2021/10/28 18:34:15;;;;;;;17.75;11.48;;;;;;;;;;5036953;28;20029;-48
2021/10/28 18:36:41;;;;;;;26.27;12.88;;;;;;;;;;5038378;28;20017;-40
2021/10/28 18:39:08;;;;;;;14.05;9.10;;;;;;;;;;5039963;28;20014;-44
2021/10/28 18:41:34;;;;;;;19.13;12.05;;;;;;;;;;5037562;28;20045;-45
2021/10/28 18:44:00;;;;;;;18.52;12.93;;;;;;;;;;5037246;28;20092;-41
2021/10/28 18:46:25;;;;;;;14.27;11.23;;;;;;;;;;5039163;28;20814;-42
2021/10/28 18:48:51;;;;;;;11.18;9.98;;;;;;;;;;5041451;28;20029;-40
2021/10/28 18:51:17;;;;;;;15.65;10.70;;;;;;;;;;5039972;28;20460;-41
2021/10/28 18:53:45;;;;;;;13.48;11.95;;;;;;;;;;5039002;28;20026;-40
2021/10/28 18:56:12;;;;;;;25.17;14.68;;;;;;;;;;5034760;28;20060;-41
2021/10/28 18:58:38;;;;;;;24.95;22.05;;;;;;;;;;5034250;28;20044;-43
2021/10/28 19:01:03;;;;;;;23.50;21.00;;;;;;;;;;5038689;28;20460;-39
2021/10/28 19:03:29;;;;;;;26.08;20.92;;;;;;;;;;5037142;28;20025;-39
2021/10/28 19:05:55;;;;;;;19.88;17.20;;;;;;;;;;5035169;28;20063;-41
2021/10/28 19:08:21;;;;;;;21.00;18.15;;;;;;;;;;5038694;28;20017;-41
2021/10/28 19:10:46;;;;;;;26.90;18.48;;;;;;;;;;5040164;28;20099;-48
2021/10/28 19:13:12;;;;;;;17.35;12.05;;;;;;;;;;5038981;28;20043;-39
2021/10/28 19:15:37;;;;;;;11.90;10.68;;;;;;;;;;5039041;28;20024;-42
2021/10/28 19:18:02;;;;;;;13.57;8.50;;;;;;;;;;5040352;28;20407;-39
2021/10/28 19:20:29;;;;;;;13.57;7.50;;;;;;;;;;5037116;28;20075;-49
2021/10/28 19:22:55;;;;;;;6.50;5.38;;;;;;;;;;5037159;28;20033;-43
2021/10/28 19:25:20;;;;;;;8.23;6.82;;;;;;;;;;5041873;28;20048;-42
2021/10/28 19:27:48;;;;;;;7.97;7.18;;;;;;;;;;5037815;28;20465;-43
2021/10/28 19:30:26;;;;;;;15.68;10.75;;;;;;;;;;5040342;28;20017;-42
2021/10/28 19:32:56;;;;;;;20.05;12.38;;;;;;;;;;5037198;28;20378;-47
2021/10/28 19:35:23;;;;;;;18.25;10.30;;;;;;;;;;5038491;28;20404;-41
2021/10/28 19:37:57;;;;;;;11.48;6.63;;;;;;;;;;5037266;28;20065;-44
2021/10/28 19:45:27;;;;;;;9.88;8.15;;;;;;;;;;5035311;28;20108;-42
2021/10/28 19:47:53;;;;;;;8.40;5.80;;;;;;;;;;5032425;28;20072;-43
2021/10/28 19:50:18;;;;;;;15.60;5.68;;;;;;;;;;5037634;28;20170;-45
2021/10/28 19:52:43;;;;;;;20.08;7.45;;;;;;;;;;5028965;28;20369;-45
2021/10/28 19:55:09;;;;;;;16.40;9.82;;;;;;;;;;5030511;28;20053;-41
2021/10/28 19:57:41;;;;;;;14.70;8.38;;;;;;;;;;5032323;28;20021;-45
2021/10/28 20:20:52;;;;;;;14.27;8.48;;;;;;;;;;5034483;28;20090;-41
2021/10/28 20:23:18;;;;;;;10.48;8.45;;;;;;;;;;5035801;28;20033;-44
2021/10/28 20:25:43;;;;;;;20.55;10.05;;;;;;;;;;5034652;28;20029;-42
2021/10/28 20:28:10;;;;;;;12.90;8.25;;;;;;;;;;5034828;28;20075;-47
2021/10/28 20:33:20;;;;;;;12.65;10.18;;;;;;;;;;5034864;28;20039;-46
2021/10/28 20:38:30;;;;;;;20.75;12.35;;;;;;;;;;5032893;28;20033;-45
2021/10/28 20:40:56;;;;;;;11.20;10.00;;;;;;;;;;5031251;28;20013;-43
2021/10/28 20:43:21;;;;;;;16.25;12.20;;;;;;;;;;5036050;28;20075;-47
2021/10/28 20:45:46;;;;;;;16.90;11.40;;;;;;;;;;5031799;28;20053;-40
2021/10/28 20:48:14;;;;;;;13.32;11.43;;;;;;;;;;5033733;28;20136;-41
2021/10/28 20:50:40;;;;;;;17.02;11.82;;;;;;;;;;5031675;28;20489;-42
2021/10/28 20:53:05;;;;;;;15.23;13.52;;;;;;;;;;5032951;28;20098;-42
2021/10/28 20:55:31;;;;;;;31.13;12.75;;;;;;;;;;5032033;28;20469;-39
2021/10/28 20:57:56;;;;;;;12.98;11.23;;;;;;;;;;5034026;28;20025;-40
2021/10/28 21:00:23;;;;;;;17.60;12.43;;;;;;;;;;5035890;28;20040;-40
2021/10/28 21:02:49;;;;;;;12.65;10.60;;;;;;;;;;5033986;28;20021;-44
2021/10/28 21:05:19;;;;;;;10.63;9.23;;;;;;;;;;5037027;28;20040;-43
2021/10/28 21:07:45;;;;;;;11.60;9.53;;;;;;;;;;5036086;28;20022;-44
2021/10/28 21:10:11;;;;;;;14.25;9.50;;;;;;;;;;5036921;28;20069;-46
2021/10/28 21:12:38;;;;;;;10.38;8.27;;;;;;;;;;5035327;28;20128;-41
2021/10/28 21:15:03;;;;;;;17.88;8.50;;;;;;;;;;5038850;28;20063;-42
2021/10/28 21:17:29;;;;;;;16.27;11.15;;;;;;;;;;5037950;28;20057;-41
2021/10/28 21:19:54;;;;;;;10.32;9.05;;;;;;;;;;5034090;28;20108;-41
2021/10/28 21:22:20;;;;;;;15.57;10.05;;;;;;;;;;5033908;28;20025;-39
2021/10/28 21:24:46;;;;;;;7.28;6.53;;;;;;;;;;5035464;28;20014;-41
2021/10/28 21:27:12;;;;;;;9.35;6.75;;;;;;;;;;5034648;28;20025;-42
2021/10/28 21:29:38;;;;;;;9.55;8.00;;;;;;;;;;5039459;28;20028;-39
2021/10/28 21:32:04;;;;;;;9.82;8.82;;;;;;;;;;5038480;28;20067;-44
2021/10/28 21:34:30;;;;;;;6.82;6.00;;;;;;;;;;5034661;28;20049;-44
2021/10/28 21:36:55;;;;;;;15.48;10.98;;;;;;;;;;5033248;28;20482;-40
2021/10/28 21:39:20;;;;;;;16.58;11.13;;;;;;;;;;5034510;28;20135;-42
2021/10/28 21:41:46;;;;;;;26.30;15.85;;;;;;;;;;5033652;28;20262;-42
2021/10/28 21:44:16;;;;;;;23.15;14.68;;;;;;;;;;5037948;28;20021;-42
2021/10/28 21:46:42;;;;;;;26.58;12.38;;;;;;;;;;5033336;28;20064;-46
2021/10/28 21:49:07;;;;;;;34.80;13.63;;;;;;;;;;5037779;28;20029;-40
2021/10/28 21:51:33;;;;;;;20.70;12.73;;;;;;;;;;5039263;28;20105;-43
2021/10/28 21:54:00;;;;;;;15.50;8.90;;;;;;;;;;5034893;28;20025;-41
2021/10/28 22:25:45;;;;;;;6.03;5.05;;;;;;;;;;5036047;28;20112;-40
2021/10/28 22:28:11;;;;;;;10.25;4.88;;;;;;;;;;5034988;28;20029;-41
2021/10/28 22:30:37;;;;;;;8.27;5.38;;;;;;;;;;5033204;28;20060;-40
2021/10/28 22:33:02;;;;;;;7.95;6.78;;;;;;;;;;5039142;28;20053;-42
2021/10/28 22:35:51;;;;;;;13.70;7.38;;;;;;;;;;5034110;28;20194;-43
2021/10/28 22:38:17;;;;;;;9.35;6.10;;;;;;;;;;5032166;28;20561;-43
2021/10/28 22:40:48;;;;;;;18.85;10.05;;;;;;;;;;5033124;28;20028;-41
2021/10/28 22:43:14;;;;;;;15.40;9.17;;;;;;;;;;5036387;28;20063;-40
2021/10/28 22:45:40;;;;;;;7.85;5.88;;;;;;;;;;5028674;28;20041;-39
2021/10/28 22:48:07;;;;;;;13.23;9.35;;;;;;;;;;5033211;28;20033;-42
2021/10/28 22:50:32;;;;;;;11.27;7.75;;;;;;;;;;5035453;28;20029;-43
2021/10/28 22:53:00;;;;;;;15.63;6.05;;;;;;;;;;5036431;28;20032;-39
2021/10/28 22:55:29;;;;;;;9.30;5.65;;;;;;;;;;5036577;28;20037;-42
2021/10/28 23:00:33;;;;;;;7.18;4.25;;;;;;;;;;5031822;28;20086;-42
2021/10/28 23:13:39;;;;;;;7.57;5.43;;;;;;;;;;5036559;28;20075;-40
2021/10/28 23:21:14;;;;;;;8.25;5.68;;;;;;;;;;5035377;28;20064;-43
2021/10/28 23:23:39;;;;;;;9.10;6.13;;;;;;;;;;5040719;28;20056;-42
2021/10/28 23:26:04;;;;;;;10.65;6.55;;;;;;;;;;5035680;28;20028;-40
2021/10/28 23:28:30;;;;;;;10.77;7.35;;;;;;;;;;5036990;28;20025;-39
2021/10/28 23:30:55;;;;;;;12.40;7.05;;;;;;;;;;5036798;28;20496;-42
2021/10/28 23:33:20;;;;;;;14.43;8.80;;;;;;;;;;5033041;28;20025;-40
2021/10/28 23:35:46;;;;;;;17.15;9.05;;;;;;;;;;5033529;28;20071;-40
2021/10/28 23:38:11;;;;;;;15.38;10.07;;;;;;;;;;5034745;28;20029;-42
2021/10/28 23:40:38;;;;;;;16.20;9.52;;;;;;;;;;5033800;28;20013;-39
2021/10/28 23:43:04;;;;;;;16.40;8.52;;;;;;;;;;5035744;28;20108;-42
2021/10/28 23:45:29;;;;;;;16.17;8.82;;;;;;;;;;5039543;28;20109;-42
2021/10/28 23:47:55;;;;;;;14.25;9.15;;;;;;;;;;5032909;28;20147;-40
2021/10/28 23:50:20;;;;;;;22.52;10.40;;;;;;;;;;5037628;28;20021;-41
2021/10/28 23:52:45;;;;;;;20.90;10.95;;;;;;;;;;5038701;28;20762;-41
2021/10/28 23:55:11;;;;;;;16.25;9.93;;;;;;;;;;5036206;28;20033;-42
2021/10/28 23:57:37;;;;;;;21.90;9.30;;;;;;;;;;5036952;28;20018;-42
